createdAt,value
2024-05-09T00:01:06.092Z,9
2024-05-09T00:16:05.943Z,9
2024-05-09T00:31:04.878Z,8
2024-05-09T00:46:05.943Z,10
2024-05-09T01:01:04.761Z,12
2024-05-09T01:16:05.513Z,9
2024-05-09T01:31:06.034Z,10
2024-05-09T01:46:04.846Z,10
2024-05-09T02:01:06.019Z,10
2024-05-09T02:16:05.769Z,12
2024-05-09T02:31:05.238Z,14
2024-05-09T02:46:04.888Z,12
2024-05-09T03:01:05.638Z,12
2024-05-09T03:16:05.391Z,14
2024-05-09T03:31:05.641Z,12
2024-05-09T03:46:05.292Z,13
2024-05-09T04:16:05.477Z,16
2024-05-09T04:31:05.399Z,12
2024-05-09T04:46:05.422Z,11
2024-05-09T05:16:05.697Z,13
2024-05-09T05:31:05.393Z,13
2024-05-09T05:46:04.819Z,12
2024-05-09T06:16:05.351Z,12
2024-05-09T06:31:04.916Z,12
2024-05-09T06:46:04.999Z,11
2024-05-09T07:01:05.889Z,12
2024-05-09T07:16:04.813Z,11
2024-05-09T07:31:05.445Z,12
2024-05-09T07:48:27.143Z,8
2024-05-09T08:01:05.930Z,8
2024-05-09T08:16:05.989Z,6
2024-05-09T08:31:07.669Z,6
2024-05-09T08:46:05.126Z,8
2024-05-09T09:01:05.431Z,5
2024-05-09T09:16:04.782Z,10
2024-05-09T09:31:05.790Z,6
2024-05-09T09:46:08.772Z,6
2024-05-09T10:16:05.118Z,5
2024-05-09T10:46:05.498Z,5
2024-05-09T11:01:07.674Z,6
2024-05-09T11:16:08.103Z,8
2024-05-09T11:31:05.361Z,5
2024-05-09T11:46:04.962Z,6
2024-05-09T12:30:40.629Z,4
2024-05-09T12:45:23.786Z,3
2024-05-09T13:00:34.108Z,5
2024-05-09T13:15:23.800Z,4
2024-05-09T13:30:39.077Z,2
2024-05-09T13:45:24.277Z,4
2024-05-09T14:00:44.631Z,4
2024-05-09T14:15:24.479Z,3
2024-05-09T14:30:36.785Z,7
2024-05-09T14:45:24.060Z,3
2024-05-09T15:00:33.593Z,6
2024-05-09T15:15:24.285Z,3
2024-05-09T15:30:33.165Z,3
2024-05-09T15:45:24.863Z,4
2024-05-09T16:00:38.838Z,4
2024-05-09T16:15:24.357Z,4
2024-05-09T16:30:35.280Z,11
2024-05-09T16:45:24.399Z,6
2024-05-09T17:00:30.602Z,4
2024-05-09T17:15:24.769Z,5
2024-05-09T17:30:35.916Z,5
2024-05-09T17:45:24.584Z,5
2024-05-09T18:00:39.310Z,9
2024-05-09T18:15:24.053Z,5
2024-05-09T18:30:35.054Z,7
2024-05-09T18:45:24.851Z,5
2024-05-09T19:00:37.192Z,7
2024-05-09T19:15:24.327Z,5
2024-05-09T19:30:39.626Z,7
2024-05-09T19:45:25.165Z,8
2024-05-09T20:00:35.885Z,8
2024-05-09T20:15:24.385Z,8
2024-05-09T20:30:33.073Z,8
2024-05-09T20:45:24.689Z,7
2024-05-09T21:00:29.918Z,12
2024-05-09T21:15:24.331Z,15
2024-05-09T21:30:30.844Z,15
2024-05-09T21:45:24.722Z,14
2024-05-09T22:00:36.892Z,14
2024-05-09T22:15:24.938Z,14
2024-05-09T22:30:37.014Z,23
2024-05-09T22:45:25.505Z,25
2024-05-09T23:00:32.970Z,17
2024-05-09T23:15:24.062Z,19
2024-05-09T23:30:38.290Z,20
2024-05-09T23:45:25.163Z,25
